PWSweather.com
Personal Weather Stations
Station Observations
SWHWX01
St AppolinardFR 38160

St AppolinardFR 38160

Lat: 45.191, Lon: 5.268

Elevation: 1460

Station Type: Davis Vantage Pro2 Plus

Latest ConditionsUpdated 5:30:04 PM GMT+01:01 Friday, May 25, 2018
Currently Today's Max Today's Min Today's Average
Temperature 76.2°F24.6°C 76.9°F24.9°C 57.4°F14.1°C 67.5°F19.7°C
Dew Point 57.8°F14.3°C 63.7°F17.6°C 53.6°F12.0°C 57.9°F14.4°C
Winds Calm Calm 4.6 mph SW7.4 kmh SW - 1.6 mph 2.6 kmh
Wind Gusts 1.0 mph1.6 kmh 7.0 mph11.3 kmh - -
Humidity 53% 87% 52% 72%
Pressure 29.94 in1013.9 mb 30.02 in1016.6 mb 29.94 in1013.9 mb -
Hour Temp Dew Point Humidity Winds Wind Gusts Pressure Precip Precip Rate Daily Precip Total
05:30 PM 76.2°F24.6°C 57.8°F14.3°C 53% Calm Calm 1.0 mph1.6 kmh 29.94 in1013.9 mb - 0.00 in0.0 mm 0.00 in0.0 mm
05:00 PM 76.4°F24.7°C 57.4°F14.1°C 52% 0.8 mph SW1.3 kmh SW 2.0 mph3.2 kmh 29.95 in1014.2 mb - 0.00 in0.0 mm 0.00 in0.0 mm
04:30 PM 76.2°F24.6°C 59.9°F15.5°C 57% 2.9 mph SW4.7 kmh SW 4.0 mph6.4 kmh 29.95 in1014.2 mb - 0.00 in0.0 mm 0.00 in0.0 mm
04:00 PM 76.4°F24.7°C 62.4°F16.9°C 62% 0.4 mph SW0.6 kmh SW 2.0 mph3.2 kmh 29.95 in1014.2 mb - 0.00 in0.0 mm 0.00 in0.0 mm
03:30 PM 75.9°F24.4°C 63.7°F17.6°C 66% 1.1 mph SW1.8 kmh SW 2.0 mph3.2 kmh 29.95 in1014.2 mb - 0.00 in0.0 mm 0.00 in0.0 mm
03:00 PM 76.4°F24.7°C 62.9°F17.2°C 63% 3.3 mph SW5.3 kmh SW 5.0 mph8.0 kmh 29.96 in1014.6 mb - 0.00 in0.0 mm 0.00 in0.0 mm
02:30 PM 76.9°F24.9°C 61.5°F16.4°C 59% 0.7 mph SW1.1 kmh SW 1.0 mph1.6 kmh 29.96 in1014.6 mb - 0.00 in0.0 mm 0.00 in0.0 mm
02:00 PM 76.7°F24.8°C 61.3°F16.3°C 59% 2.8 mph SW4.5 kmh SW 6.0 mph9.7 kmh 29.97 in1014.9 mb - 0.00 in0.0 mm 0.00 in0.0 mm
01:30 PM 74.3°F23.5°C 59.1°F15.1°C 59% 4.5 mph SW7.2 kmh SW 7.0 mph11.3 kmh 29.97 in1014.9 mb - 0.00 in0.0 mm 0.00 in0.0 mm
01:00 PM 74.3°F23.5°C 59.1°F15.1°C 59% 4.1 mph SW6.6 kmh SW 6.0 mph9.7 kmh 29.98 in1015.2 mb - 0.00 in0.0 mm 0.00 in0.0 mm
12:30 PM 73.5°F23.1°C 58.3°F14.6°C 59% 4.0 mph WSW6.4 kmh WSW 7.0 mph11.3 kmh 29.98 in1015.2 mb - 0.00 in0.0 mm 0.00 in0.0 mm
12:00 PM 73.3°F22.9°C 60.4°F15.8°C 64% 4.6 mph SW7.4 kmh SW 7.0 mph11.3 kmh 29.99 in1015.6 mb - 0.00 in0.0 mm 0.00 in0.0 mm
11:30 AM 73.3°F22.9°C 61.7°F16.5°C 67% 2.5 mph SSW4.0 kmh SSW 2.0 mph3.2 kmh 29.98 in1015.2 mb - 0.00 in0.0 mm 0.00 in0.0 mm
11:00 AM 71.8°F22.1°C 62.7°F17.1°C 73% 2.6 mph SW4.2 kmh SW 4.0 mph6.4 kmh 29.98 in1015.2 mb - 0.00 in0.0 mm 0.00 in0.0 mm
10:30 AM 70.4°F21.3°C 61.3°F16.3°C 73% 1.2 mph SW1.9 kmh SW 4.0 mph6.4 kmh 29.98 in1015.2 mb - 0.00 in0.0 mm 0.00 in0.0 mm
10:00 AM 69.7°F20.9°C 61.4°F16.3°C 75% 4.5 mph SW7.2 kmh SW 7.0 mph11.3 kmh 29.98 in1015.2 mb - 0.00 in0.0 mm 0.00 in0.0 mm
09:30 AM 69.5°F20.8°C 60.8°F16.0°C 74% 1.2 mph SW1.9 kmh SW 2.0 mph3.2 kmh 29.99 in1015.6 mb - 0.00 in0.0 mm 0.00 in0.0 mm
09:00 AM 68.4°F20.2°C 59.0°F15.0°C 72% 0.3 mph SW0.5 kmh SW 3.0 mph4.8 kmh 29.99 in1015.6 mb - 0.00 in0.0 mm 0.00 in0.0 mm
08:30 AM 67.2°F19.6°C 58.7°F14.8°C 74% 1.5 mph SW2.4 kmh SW 3.0 mph4.8 kmh 29.99 in1015.6 mb - 0.00 in0.0 mm 0.00 in0.0 mm
08:00 AM 65.7°F18.7°C 57.6°F14.2°C 75% 1.9 mph SW3.1 kmh SW 3.0 mph4.8 kmh 29.99 in1015.6 mb - 0.00 in0.0 mm 0.00 in0.0 mm
07:30 AM 63.7°F17.6°C 58.4°F14.7°C 83% 0.4 mph SW0.6 kmh SW 2.0 mph3.2 kmh 30.00 in1015.9 mb - 0.00 in0.0 mm 0.00 in0.0 mm
07:00 AM 62.7°F17.1°C 56.8°F13.8°C 81% 0.2 mph SW0.3 kmh SW 2.0 mph3.2 kmh 30.00 in1015.9 mb - 0.00 in0.0 mm 0.00 in0.0 mm
06:30 AM 60.1°F15.6°C 55.9°F13.3°C 86% Calm Calm 1.0 mph1.6 kmh 30.00 in1015.9 mb - 0.00 in0.0 mm 0.00 in0.0 mm
06:00 AM 58.1°F14.5°C 54.3°F12.4°C 87% Calm Calm -- 30.00 in1015.9 mb - 0.00 in0.0 mm 0.00 in0.0 mm
05:30 AM 57.7°F14.3°C 53.9°F12.2°C 87% 2.0 mph SW3.2 kmh SW 3.0 mph4.8 kmh 30.00 in1015.9 mb - 0.00 in0.0 mm 0.00 in0.0 mm
05:00 AM 57.4°F14.1°C 53.6°F12.0°C 87% 1.7 mph SW2.7 kmh SW 2.0 mph3.2 kmh 29.99 in1015.6 mb - 0.00 in0.0 mm 0.00 in0.0 mm
04:30 AM 58.1°F14.5°C 53.9°F12.2°C 86% 2.2 mph SW3.5 kmh SW 3.0 mph4.8 kmh 29.99 in1015.6 mb - 0.00 in0.0 mm 0.00 in0.0 mm
04:00 AM 59.1°F15.1°C 53.9°F12.2°C 83% 0.3 mph SW0.5 kmh SW 2.0 mph3.2 kmh 30.00 in1015.9 mb - 0.00 in0.0 mm 0.00 in0.0 mm
03:30 AM 59.9°F15.5°C 54.4°F12.4°C 82% 0.2 mph SW0.3 kmh SW -- 30.00 in1015.9 mb - 0.00 in0.0 mm 0.00 in0.0 mm
03:00 AM 60.2°F15.7°C 54.3°F12.4°C 81% 0.3 mph SW0.5 kmh SW 2.0 mph3.2 kmh 30.00 in1015.9 mb - 0.00 in0.0 mm 0.00 in0.0 mm
02:30 AM 60.9°F16.1°C 54.3°F12.4°C 79% 0.7 mph SW1.1 kmh SW 1.0 mph1.6 kmh 30.01 in1016.3 mb - 0.00 in0.0 mm 0.00 in0.0 mm
02:00 AM 60.5°F15.8°C 54.3°F12.4°C 80% 0.1 mph SW0.2 kmh SW 1.0 mph1.6 kmh 30.01 in1016.3 mb - 0.00 in0.0 mm 0.00 in0.0 mm
01:30 AM 61.3°F16.3°C 54.4°F12.4°C 78% 0.9 mph SW1.4 kmh SW 2.0 mph3.2 kmh 30.01 in1016.3 mb - 0.00 in0.0 mm 0.00 in0.0 mm
01:00 AM 62.2°F16.8°C 54.5°F12.5°C 76% 1.0 mph SW1.6 kmh SW 2.0 mph3.2 kmh 30.02 in1016.6 mb - 0.00 in0.0 mm 0.00 in0.0 mm
12:30 AM 62.9°F17.2°C 54.5°F12.5°C 74% 2.0 mph SW3.2 kmh SW 3.0 mph4.8 kmh 30.01 in1016.3 mb - 0.00 in0.0 mm 0.00 in0.0 mm
12:00 AM 63.8°F17.7°C 55.0°F12.8°C 73% 2.0 mph SW3.2 kmh SW 3.0 mph4.8 kmh 30.02 in1016.6 mb - 0.00 in0.0 mm 0.00 in0.0 mm